createdAt,value
2018-06-25T09:12:03.719Z,26
2018-06-25T09:12:53.427Z,25.9
2018-06-25T09:13:44.057Z,25.9
2018-06-25T09:14:34.099Z,25.9
2018-06-25T09:15:25.491Z,25.9
2018-06-25T09:16:14.728Z,25.9
2018-06-25T09:17:04.527Z,25.9
2018-06-25T09:17:54.565Z,25.9
2018-06-25T09:18:44.346Z,25.9
2018-06-25T09:19:34.961Z,25.9
2018-06-25T09:20:25.080Z,25.9
2018-06-25T09:21:14.820Z,25.9
2018-06-25T09:22:05.270Z,25.9
2018-06-25T09:22:54.131Z,25.9
2018-06-25T09:23:45.042Z,25.9
2018-06-25T09:24:35.333Z,25.9
2018-06-25T09:25:25.152Z,25.9
2018-06-25T09:26:15.186Z,25.9
2018-06-25T09:27:05.004Z,25.9
2018-06-25T09:27:55.762Z,25.9
2018-06-25T09:28:45.669Z,25.9
2018-06-25T09:29:35.732Z,25.9
2018-06-25T09:30:25.246Z,25.9
2018-06-25T09:31:15.073Z,25.9
2018-06-25T09:32:05.391Z,25.9
2018-06-25T09:32:55.994Z,25.9
2018-06-25T09:33:45.225Z,25.9
2018-06-25T09:34:36.172Z,25.9
2018-06-25T09:35:26.983Z,25.9
2018-06-25T09:36:16.244Z,25.9
2018-06-25T09:37:05.749Z,25.9
2018-06-25T09:37:56.357Z,25.9
2018-06-25T09:38:45.898Z,25.9
2018-06-25T09:39:36.566Z,25.9
2018-06-25T09:40:25.985Z,25.9
2018-06-25T09:41:16.579Z,25.9
2018-06-25T09:42:06.441Z,25.9
2018-06-25T09:42:56.540Z,25.9
2018-06-25T09:43:46.091Z,25.9
2018-06-25T09:44:36.909Z,25.9
2018-06-25T09:45:26.121Z,25.9
2018-06-25T09:46:16.487Z,25.9
2018-06-25T09:47:07.757Z,25.9
2018-06-25T09:47:56.878Z,25.9
2018-06-25T09:48:46.643Z,25.9
2018-06-25T09:49:37.296Z,25.9
2018-06-25T09:50:27.073Z,25.9
2018-06-25T09:51:16.842Z,25.9
2018-06-25T09:52:07.188Z,25.9
2018-06-25T09:52:57.514Z,25.9
2018-06-25T09:53:47.335Z,25.9
2018-06-25T09:54:36.662Z,25.9
2018-06-25T09:55:27.692Z,25.9
2018-06-25T09:56:16.944Z,25.9
2018-06-25T09:57:07.280Z,25.9
2018-06-25T09:57:57.620Z,25.9
2018-06-25T09:58:47.737Z,25.9
2018-06-25T09:59:37.478Z,25.9
2018-06-25T10:00:28.078Z,25.9
2018-06-25T10:01:17.901Z,25.9
2018-06-25T10:02:07.945Z,25.9
2018-06-25T10:02:57.993Z,25.9
2018-06-25T10:03:48.083Z,25.9
2018-06-25T10:04:38.151Z,25.9
2018-06-25T10:05:28.213Z,25.9
2018-06-25T10:06:18.566Z,25.9
2018-06-25T10:07:08.080Z,25.9
2018-06-25T10:07:58.637Z,25.9
2018-06-25T10:08:48.469Z,25.9
2018-06-25T10:09:38.237Z,25.9
2018-06-25T10:10:28.769Z,25.9
2018-06-25T10:11:18.937Z,25.9
2018-06-25T10:12:08.426Z,25.9
2018-06-25T10:12:58.762Z,25.9
2018-06-25T10:13:48.873Z,25.9
2018-06-25T10:14:39.146Z,25.9
2018-06-25T10:15:28.685Z,25.9
2018-06-25T10:16:19.041Z,25.9
2018-06-25T10:17:09.063Z,25.9
2018-06-25T10:17:59.185Z,25.9
2018-06-25T10:18:49.233Z,25.9
2018-06-25T10:19:39.588Z,25.9
2018-06-25T10:20:29.648Z,25.9
2018-06-25T10:21:19.973Z,25.9
2018-06-25T10:22:09.481Z,25.9
2018-06-25T10:22:59.849Z,25.9
2018-06-25T10:23:49.050Z,25.9
2018-06-25T10:24:39.933Z,25.9
2018-06-25T10:25:29.729Z,25.9
2018-06-25T10:26:19.519Z,25.9
2018-06-25T10:27:09.972Z,25.9
2018-06-25T10:27:59.714Z,25.9
2018-06-25T10:28:49.729Z,25.9
2018-06-25T10:29:40.036Z,25.9
2018-06-25T10:30:29.828Z,25.9
2018-06-25T10:31:20.489Z,25.9
2018-06-25T10:32:10.541Z,25.9
2018-06-25T10:32:59.936Z,25.9
2018-06-25T10:33:50.375Z,25.9
2018-06-25T10:34:40.979Z,25.9
2018-06-25T10:35:30.790Z,25.9
2018-06-25T10:36:20.815Z,25.9
2018-06-25T10:37:10.620Z,25.9
2018-06-25T10:38:01.004Z,25.9
2018-06-25T10:38:50.480Z,25.9
2018-06-25T10:39:41.080Z,25.9
2018-06-25T10:40:30.880Z,25.9
2018-06-25T10:41:21.239Z,25.9
2018-06-25T10:42:12.253Z,25.9
2018-06-25T10:43:01.080Z,25.9
2018-06-25T10:43:51.117Z,25.9
2018-06-25T10:44:41.195Z,25.9
2018-06-25T10:45:31.552Z,25.9
2018-06-25T10:46:21.063Z,25.9
2018-06-25T10:47:11.095Z,25.9
2018-06-25T10:48:01.457Z,25.9
2018-06-25T10:48:51.017Z,25.9
2018-06-25T10:49:41.580Z,25.9
2018-06-25T10:50:31.065Z,25.9
2018-06-25T10:51:21.225Z,25.9
2018-06-25T10:52:11.502Z,25.9
2018-06-25T10:53:01.862Z,25.9
2018-06-25T10:53:51.869Z,25.9
2018-06-25T10:54:41.925Z,25.9
2018-06-25T10:55:31.991Z,25.9
2018-06-25T10:56:21.624Z,25.9
2018-06-25T10:57:12.153Z,25.9
2018-06-25T10:58:02.188Z,25.9
2018-06-25T10:58:52.526Z,25.9
2018-06-25T10:59:43.661Z,25.9
2018-06-25T11:00:32.556Z,25.9
2018-06-25T11:01:22.498Z,25.9
2018-06-25T11:02:12.784Z,25.9
2018-06-25T11:03:02.602Z,25.9
2018-06-25T11:03:52.924Z,25.9
2018-06-25T11:04:42.991Z,25.9
2018-06-25T11:05:32.768Z,25.9
2018-06-25T11:06:22.832Z,25.9
2018-06-25T11:07:14.067Z,25.9
2018-06-25T11:08:02.489Z,25.8
2018-06-25T11:08:53.336Z,25.9
2018-06-25T11:09:43.108Z,25.9
2018-06-25T11:10:33.233Z,25.9
2018-06-25T11:11:23.167Z,25.9
2018-06-25T11:12:12.566Z,25.8
2018-06-25T11:13:04.333Z,25.9
2018-06-25T11:13:53.444Z,25.9
2018-06-25T11:14:42.937Z,25.9
2018-06-25T11:15:33.883Z,25.8
2018-06-25T11:16:23.062Z,25.8
2018-06-25T11:17:13.968Z,25.8
2018-06-25T11:18:04.017Z,25.8
2018-06-25T11:18:54.093Z,25.8
2018-06-25T11:19:43.695Z,25.8
2018-06-25T11:20:33.974Z,25.9
2018-06-25T11:21:24.011Z,25.8
2018-06-25T11:22:13.770Z,25.8
2018-06-25T11:23:04.138Z,25.8
2018-06-25T11:23:53.993Z,25.8
2018-06-25T11:24:43.714Z,25.8
2018-06-25T11:25:34.587Z,25.8
2018-06-25T11:26:24.184Z,25.8
2018-06-25T11:27:14.811Z,25.9
2018-06-25T11:28:04.543Z,25.8
2018-06-25T11:28:54.016Z,25.8
2018-06-25T11:29:44.931Z,25.8
2018-06-25T11:30:34.694Z,25.8
2018-06-25T11:31:25.024Z,25.8
2018-06-25T11:32:15.145Z,25.8
2018-06-25T11:33:05.187Z,25.8
2018-06-25T11:33:54.427Z,25.8
2018-06-25T11:34:45.361Z,25.8
2018-06-25T11:35:34.802Z,25.8
2018-06-25T11:36:24.893Z,25.8
2018-06-25T11:37:15.528Z,25.8
2018-06-25T11:38:05.269Z,25.8
2018-06-25T11:38:55.129Z,25.8
2018-06-25T11:39:45.692Z,25.8
2018-06-25T11:40:35.488Z,25.8
2018-06-25T11:41:25.535Z,25.8
2018-06-25T11:42:15.607Z,25.8
2018-06-25T11:43:05.667Z,25.8
2018-06-25T11:43:55.736Z,25.8
2018-06-25T11:44:45.785Z,25.8
2018-06-25T11:45:35.865Z,25.8
2018-06-25T11:46:25.933Z,25.8
2018-06-25T11:47:15.729Z,25.8
2018-06-25T11:48:06.106Z,25.8
2018-06-25T11:48:56.116Z,25.8
2018-06-25T11:49:46.208Z,25.8
2018-06-25T11:50:35.951Z,25.8
2018-06-25T11:51:26.341Z,25.8
2018-06-25T11:52:16.113Z,25.8
2018-06-25T11:53:06.156Z,25.8
2018-06-25T11:53:55.731Z,25.8
2018-06-25T11:54:46.823Z,25.8
2018-06-25T11:55:36.071Z,25.8
2018-06-25T11:56:25.943Z,25.8
2018-06-25T11:57:15.900Z,25.8
2018-06-25T11:58:06.155Z,25.8
2018-06-25T11:58:56.393Z,25.8
2018-06-25T11:59:46.681Z,25.8
2018-06-25T12:00:37.070Z,25.8
2018-06-25T12:01:26.816Z,25.8
2018-06-25T12:02:17.220Z,25.8
2018-06-25T12:03:08.495Z,25.8
2018-06-25T12:03:57.541Z,25.8
2018-06-25T12:04:47.352Z,25.8
2018-06-25T12:05:37.120Z,25.8
2018-06-25T12:06:26.900Z,25.8
2018-06-25T12:07:17.654Z,25.8
2018-06-25T12:08:07.912Z,25.8
2018-06-25T12:08:57.380Z,25.8
2018-06-25T12:09:48.017Z,25.8
2018-06-25T12:10:38.737Z,25.8
2018-06-25T12:11:27.627Z,25.8
2018-06-25T12:12:17.722Z,25.8
2018-06-25T12:13:07.509Z,25.8
2018-06-25T12:13:57.809Z,25.8
2018-06-25T12:14:48.366Z,25.8
2018-06-25T12:15:38.426Z,25.8
2018-06-25T12:16:28.239Z,25.8
2018-06-25T12:17:18.306Z,25.8
2018-06-25T12:18:07.814Z,25.8
2018-06-25T12:18:58.860Z,25.8
2018-06-25T12:19:48.309Z,25.8
2018-06-25T12:20:38.534Z,25.8
2018-06-25T12:21:28.612Z,25.8
2018-06-25T12:22:18.398Z,25.8
2018-06-25T12:23:09.564Z,25.8
2018-06-25T12:23:58.528Z,25.8
2018-06-25T12:24:48.898Z,25.8
2018-06-25T12:25:38.399Z,25.8
2018-06-25T12:26:28.994Z,25.8
2018-06-25T12:27:19.359Z,25.8
2018-06-25T12:28:09.381Z,25.8
2018-06-25T12:28:58.919Z,25.8
2018-06-25T12:29:49.502Z,25.8
2018-06-25T12:30:38.780Z,25.8
2018-06-25T12:31:29.680Z,25.8
2018-06-25T12:32:19.448Z,25.8
2018-06-25T12:33:09.257Z,25.8
2018-06-25T12:33:59.568Z,25.8
2018-06-25T12:34:49.348Z,25.8
2018-06-25T12:35:39.747Z,25.8
2018-06-25T12:36:30.028Z,25.8
2018-06-25T12:37:20.093Z,25.8
2018-06-25T12:38:10.155Z,25.8
2018-06-25T12:38:59.968Z,25.8
2018-06-25T12:39:50.292Z,25.8
2018-06-25T12:40:40.080Z,25.8
2018-06-25T12:41:31.018Z,25.8
2018-06-25T12:42:20.505Z,25.8
2018-06-25T12:43:11.193Z,25.8
2018-06-25T12:44:00.370Z,25.8
2018-06-25T12:44:50.686Z,25.8
2018-06-25T12:45:40.166Z,25.8
2018-06-25T12:46:30.851Z,25.8
2018-06-25T12:47:20.377Z,25.8
2018-06-25T12:48:10.370Z,25.8
2018-06-25T12:49:01.031Z,25.8
2018-06-25T12:49:50.779Z,25.8
2018-06-25T12:50:41.151Z,25.8
2018-06-25T12:51:30.925Z,25.8
2018-06-25T12:52:21.266Z,25.8
2018-06-25T12:53:11.343Z,25.8
2018-06-25T12:54:01.890Z,25.8
2018-06-25T12:54:51.194Z,25.8
2018-06-25T12:55:41.257Z,25.8
2018-06-25T12:56:31.032Z,25.8
2018-06-25T12:57:21.643Z,25.8
2018-06-25T12:58:10.858Z,25.8
2018-06-25T12:59:01.237Z,25.8
2018-06-25T12:59:51.859Z,25.8
2018-06-25T13:00:41.864Z,25.8
2018-06-25T13:01:31.889Z,25.8
2018-06-25T13:02:22.022Z,25.8
2018-06-25T13:03:12.081Z,25.8
2018-06-25T13:04:01.103Z,25.8
2018-06-25T13:04:51.951Z,25.7
2018-06-25T13:05:42.278Z,25.8
2018-06-25T13:06:32.347Z,25.8
2018-06-25T13:07:22.119Z,25.8
2018-06-25T13:08:11.928Z,25.7
2018-06-25T13:09:02.018Z,25.8
2018-06-25T13:09:52.350Z,25.8
2018-06-25T13:10:43.138Z,25.7
2018-06-25T13:11:32.732Z,25.8
2018-06-25T13:12:22.825Z,25.8
2018-06-25T13:13:12.571Z,25.8
2018-06-25T13:14:02.354Z,25.8
2018-06-25T13:14:53.176Z,25.8
2018-06-25T13:15:42.496Z,25.7
2018-06-25T13:16:32.073Z,25.7
2018-06-25T13:17:23.222Z,25.7
2018-06-25T13:18:13.757Z,25.8
2018-06-25T13:19:03.027Z,25.7
2018-06-25T13:19:53.085Z,25.8
2018-06-25T13:20:44.155Z,25.7
2018-06-25T13:21:33.213Z,25.8
2018-06-25T13:22:22.815Z,25.8
2018-06-25T13:23:13.636Z,25.7
2018-06-25T13:24:03.685Z,25.7
2018-06-25T13:24:53.436Z,25.8
2018-06-25T13:25:44.932Z,25.7
2018-06-25T13:26:33.027Z,25.7
2018-06-25T13:27:23.944Z,25.8
2018-06-25T13:28:13.976Z,25.7
2018-06-25T13:29:03.684Z,25.7
2018-06-25T13:29:53.828Z,25.7
2018-06-25T13:30:44.222Z,25.7
2018-06-25T13:31:34.314Z,25.7
2018-06-25T13:32:24.023Z,25.7
2018-06-25T13:33:14.416Z,25.7
2018-06-25T13:34:04.212Z,25.7
2018-06-25T13:34:54.559Z,25.7
2018-06-25T13:35:44.579Z,25.7
2018-06-25T13:36:34.401Z,25.7
2018-06-25T13:37:24.419Z,25.7
2018-06-25T13:38:15.220Z,25.7
2018-06-25T13:39:04.864Z,25.7
2018-06-25T13:39:54.312Z,25.7
2018-06-25T13:40:44.406Z,25.7
2018-06-25T13:41:34.963Z,25.7
2018-06-25T13:42:25.125Z,25.7
2018-06-25T13:43:14.339Z,25.7
2018-06-25T13:44:04.665Z,25.7
2018-06-25T13:44:54.721Z,25.7
2018-06-25T13:45:45.931Z,25.7
2018-06-25T13:46:35.458Z,25.7
2018-06-25T13:47:25.464Z,25.7
2018-06-25T13:48:15.839Z,25.7
2018-06-25T13:49:05.742Z,25.7
2018-06-25T13:49:55.711Z,25.7
2018-06-25T13:50:45.516Z,25.7
2018-06-25T13:51:35.550Z,25.7
2018-06-25T13:52:25.619Z,25.7
2018-06-25T13:53:15.071Z,25.7
2018-06-25T13:54:05.713Z,25.7
2018-06-25T13:54:55.999Z,25.7
2018-06-25T13:55:45.574Z,25.7
2018-06-25T13:56:36.162Z,25.7
2018-06-25T13:57:25.687Z,25.7
2018-06-25T13:58:16.352Z,25.7
2018-06-25T13:59:06.387Z,25.7
2018-06-25T13:59:55.881Z,25.7
2018-06-25T14:00:46.940Z,25.7
2018-06-25T14:01:35.771Z,25.7
2018-06-25T14:02:26.628Z,25.7
2018-06-25T14:03:16.708Z,25.6
2018-06-25T14:04:06.519Z,25.7
2018-06-25T14:04:56.539Z,25.7
2018-06-25T14:05:46.299Z,25.7
2018-06-25T14:06:36.401Z,25.7
2018-06-25T14:07:27.021Z,25.7
2018-06-25T14:08:17.134Z,25.6
2018-06-25T14:09:06.593Z,25.7
2018-06-25T14:09:57.298Z,25.6
2018-06-25T14:10:46.751Z,25.7
2018-06-25T14:11:36.769Z,25.7
2018-06-25T14:12:26.538Z,25.7
2018-06-25T14:13:17.436Z,25.7
2018-06-25T14:14:07.550Z,25.7
2018-06-25T14:14:56.821Z,25.6
2018-06-25T14:15:47.464Z,25.7
2018-06-25T14:16:37.830Z,25.7
2018-06-25T14:17:27.181Z,25.6
2018-06-25T14:18:17.881Z,25.6
2018-06-25T14:19:07.921Z,25.7
2018-06-25T14:19:58.395Z,25.6
2018-06-25T14:20:48.026Z,25.6
2018-06-25T14:21:37.557Z,25.6
2018-06-25T14:22:27.577Z,25.6
2018-06-25T14:23:17.689Z,25.6
2018-06-25T14:24:08.028Z,25.6
2018-06-25T14:24:58.309Z,25.6
2018-06-25T14:25:48.379Z,25.6
2018-06-25T14:26:38.490Z,25.6
2018-06-25T14:27:28.260Z,25.6
2018-06-25T14:28:18.904Z,25.6
2018-06-25T14:29:08.357Z,25.6
2018-06-25T14:29:58.535Z,25.6
2018-06-25T14:30:48.260Z,25.7
2018-06-25T14:31:38.588Z,25.6
2018-06-25T14:32:28.652Z,25.7
2018-06-25T14:33:19.016Z,25.6
2018-06-25T14:34:09.079Z,25.6
2018-06-25T14:34:59.196Z,25.6
2018-06-25T14:35:48.585Z,25.6
2018-06-25T14:36:38.946Z,25.6
2018-06-25T14:37:29.308Z,25.6
2018-06-25T14:38:19.368Z,25.6
2018-06-25T14:39:09.139Z,25.6
2018-06-25T14:39:59.189Z,25.7
2018-06-25T14:40:50.113Z,25.6
2018-06-25T14:41:39.313Z,25.6
2018-06-25T14:42:29.387Z,25.6
2018-06-25T14:43:19.495Z,25.6
2018-06-25T14:44:09.266Z,25.6
2018-06-25T14:44:59.597Z,25.6
2018-06-25T14:45:49.671Z,25.6
2018-06-25T14:46:40.022Z,25.6
2018-06-25T14:47:29.795Z,25.6
2018-06-25T14:48:20.663Z,25.6
2018-06-25T14:49:09.633Z,25.6
2018-06-25T14:50:00.344Z,25.6
2018-06-25T14:50:50.035Z,25.6
2018-06-25T14:51:39.816Z,25.6
2018-06-25T14:52:30.707Z,25.6
2018-06-25T14:53:20.513Z,25.6
2018-06-25T14:54:10.027Z,25.6
2018-06-25T14:55:00.659Z,25.6
2018-06-25T14:55:50.157Z,25.6
2018-06-25T14:56:40.844Z,25.6
2018-06-25T14:57:30.819Z,25.6
2018-06-25T14:58:20.610Z,25.6
2018-06-25T14:59:10.871Z,25.6
2018-06-25T15:00:00.458Z,25.6
2018-06-25T15:00:51.078Z,25.6
2018-06-25T15:01:41.150Z,25.6
2018-06-25T15:02:31.002Z,25.6
2018-06-25T15:03:21.244Z,25.6
2018-06-25T15:04:10.221Z,25.6
2018-06-25T15:05:01.426Z,25.6
2018-06-25T15:05:50.935Z,25.6
2018-06-25T15:06:41.041Z,25.6
2018-06-25T15:07:31.044Z,25.6
2018-06-25T15:08:20.833Z,25.6
2018-06-25T15:09:11.179Z,25.6
2018-06-25T15:10:00.931Z,25.6
2018-06-25T15:10:51.568Z,25.6
2018-06-25T15:11:58.640Z,25.6
2018-06-25T15:12:48.695Z,25.6
2018-06-25T15:13:39.305Z,25.6
2018-06-25T15:14:29.657Z,25.6
2018-06-25T15:15:19.395Z,25.6
2018-06-25T15:16:09.807Z,25.6
2018-06-25T15:16:59.278Z,25.6
2018-06-25T15:17:49.683Z,25.6
2018-06-25T15:18:39.945Z,25.6
2018-06-25T15:19:29.775Z,25.6
2018-06-25T15:20:20.155Z,25.6
2018-06-25T15:21:09.900Z,25.6
2018-06-25T15:21:59.362Z,25.6
2018-06-25T15:22:50.296Z,25.6
2018-06-25T15:23:40.079Z,25.6
2018-06-25T15:24:29.843Z,25.6
2018-06-25T15:25:20.478Z,25.6
2018-06-25T15:26:10.776Z,25.6
2018-06-25T15:27:00.621Z,25.6
2018-06-25T15:27:50.747Z,25.6
2018-06-25T15:28:40.430Z,25.6
2018-06-25T15:29:30.827Z,25.6
2018-06-25T15:30:20.891Z,25.6
2018-06-25T15:31:10.919Z,25.6
2018-06-25T15:32:01.451Z,25.6
2018-06-25T15:32:51.050Z,25.6
2018-06-25T15:33:41.142Z,25.6
2018-06-25T15:34:31.191Z,25.6
2018-06-25T15:35:20.669Z,25.6
2018-06-25T15:36:11.038Z,25.6
2018-06-25T15:37:01.095Z,25.6
2018-06-25T15:37:50.873Z,25.6
2018-06-25T15:38:41.493Z,25.6
2018-06-25T15:39:31.283Z,25.6
2018-06-25T15:40:21.615Z,25.6
2018-06-25T15:41:11.390Z,25.6
2018-06-25T15:42:01.214Z,25.6
2018-06-25T15:42:51.789Z,25.6
2018-06-25T15:43:41.887Z,25.6
2018-06-25T15:44:31.943Z,25.6
2018-06-25T15:45:21.730Z,25.6
2018-06-25T15:46:11.797Z,25.6
2018-06-25T15:47:01.300Z,25.6
2018-06-25T15:47:52.037Z,25.6
2018-06-25T15:48:41.452Z,25.6
2018-06-25T15:49:32.065Z,25.6
2018-06-25T15:50:21.820Z,25.6
2018-06-25T15:51:11.867Z,25.6
2018-06-25T15:52:02.238Z,25.6
2018-06-25T15:52:52.292Z,25.6
2018-06-25T15:53:42.449Z,25.6
2018-06-25T15:54:32.197Z,25.6
2018-06-25T15:55:22.761Z,25.6
2018-06-25T15:56:12.828Z,25.6
2018-06-25T15:57:02.630Z,25.6
2018-06-25T15:57:52.665Z,25.6
2018-06-25T15:58:43.081Z,25.6
2018-06-25T15:59:32.523Z,25.5
2018-06-25T16:00:22.856Z,25.6
2018-06-25T16:01:12.957Z,25.6
2018-06-25T16:02:03.289Z,25.6
2018-06-25T16:02:53.338Z,25.6
2018-06-25T16:03:43.134Z,25.5
2018-06-25T16:04:33.478Z,25.6
2018-06-25T16:05:22.728Z,25.5
2018-06-25T16:06:13.329Z,25.6
2018-06-25T16:07:05.367Z,25.6
2018-06-25T16:07:53.454Z,25.6
2018-06-25T16:08:43.497Z,25.5
2018-06-25T16:09:33.868Z,25.6
2018-06-25T16:10:23.899Z,25.6
2018-06-25T16:11:13.726Z,25.5
2018-06-25T16:12:04.042Z,25.6
2018-06-25T16:12:54.109Z,25.6
2018-06-25T16:13:43.933Z,25.6
2018-06-25T16:14:34.002Z,25.6
2018-06-25T16:15:24.033Z,25.5
2018-06-25T16:16:14.353Z,25.6
2018-06-25T16:17:04.139Z,25.6
2018-06-25T16:17:53.948Z,25.6
2018-06-25T16:18:43.972Z,25.5
2018-06-25T16:19:34.359Z,25.5
2018-06-25T16:20:24.658Z,25.5
2018-06-25T16:21:14.458Z,25.5
2018-06-25T16:22:03.961Z,25.5
2018-06-25T16:22:54.690Z,25.6
2018-06-25T16:23:44.086Z,25.6
2018-06-25T16:24:34.710Z,25.5
2018-06-25T16:25:25.097Z,25.5
2018-06-25T16:26:14.270Z,25.5
2018-06-25T16:27:04.911Z,25.5
2018-06-25T16:27:54.998Z,25.5
2018-06-25T16:28:46.078Z,25.5
2018-06-25T16:29:34.792Z,25.5
2018-06-25T16:30:24.593Z,25.5
2018-06-25T16:31:14.958Z,25.5
2018-06-25T16:32:05.586Z,25.5
2018-06-25T16:32:55.633Z,25.5
2018-06-25T16:33:45.390Z,25.5
2018-06-25T16:34:34.927Z,25.5
2018-06-25T16:35:25.265Z,25.5
2018-06-25T16:36:15.320Z,25.5
2018-06-25T16:37:05.709Z,25.5
2018-06-25T16:37:55.455Z,25.5
2018-06-25T16:38:45.811Z,25.5
2018-06-25T16:39:35.903Z,25.5
2018-06-25T16:40:26.222Z,25.5
2018-06-25T16:41:15.692Z,25.5
2018-06-25T16:42:06.054Z,25.5
2018-06-25T16:42:55.859Z,25.5
2018-06-25T16:43:46.435Z,25.5
2018-06-25T16:44:36.261Z,25.5
2018-06-25T16:45:25.804Z,25.5
2018-06-25T16:46:16.651Z,25.5
2018-06-25T16:47:06.416Z,25.5
2018-06-25T16:47:56.775Z,25.5
2018-06-25T16:48:46.847Z,25.5
2018-06-25T16:49:36.892Z,25.4
2018-06-25T16:50:26.945Z,25.5
2018-06-25T16:51:16.486Z,25.5
2018-06-25T16:52:06.826Z,25.5
2018-06-25T16:52:56.597Z,25.5
2018-06-25T16:53:46.638Z,25.5
2018-06-25T16:54:37.080Z,25.5
2018-06-25T16:55:27.042Z,25.5
2018-06-25T16:56:16.677Z,25.5
2018-06-25T16:57:07.170Z,25.5
2018-06-25T16:57:57.539Z,25.5
2018-06-25T16:58:47.114Z,25.5
2018-06-25T16:59:37.141Z,25.5
2018-06-25T17:00:27.252Z,25.5
2018-06-25T17:01:17.062Z,25.5
2018-06-25T17:02:05.658Z,25.5
2018-06-25T17:02:57.407Z,25.5
2018-06-25T17:03:47.288Z,25.5
2018-06-25T17:04:37.281Z,25.5
2018-06-25T17:05:27.361Z,25.5
2018-06-25T17:06:17.123Z,25.4
2018-06-25T17:07:07.740Z,25.4
2018-06-25T17:07:57.715Z,25.5
2018-06-25T17:08:47.632Z,25.5
2018-06-25T17:09:37.962Z,25.5
2018-06-25T17:10:27.730Z,25.5
2018-06-25T17:11:18.610Z,25.4
2018-06-25T17:12:08.657Z,25.4
2018-06-25T17:12:58.121Z,25.4
2018-06-25T17:13:48.164Z,25.4
2018-06-25T17:14:38.816Z,25.4
2018-06-25T17:15:28.574Z,25.5
2018-06-25T17:16:18.642Z,25.4
2018-06-25T17:17:08.729Z,25.4
2018-06-25T17:17:58.762Z,25.4
2018-06-25T17:18:48.804Z,25.4
2018-06-25T17:19:38.316Z,25.4
2018-06-25T17:20:29.225Z,25.4
2018-06-25T17:21:18.543Z,25.4
2018-06-25T17:22:09.944Z,25.5
2018-06-25T17:22:58.857Z,25.4
2018-06-25T17:23:48.909Z,25.4
2018-06-25T17:24:39.552Z,25.4
2018-06-25T17:25:29.641Z,25.4
2018-06-25T17:26:19.443Z,25.4
2018-06-25T17:27:08.915Z,25.4
2018-06-25T17:27:59.791Z,25.4
2018-06-25T17:28:50.328Z,25.4
2018-06-25T17:29:39.946Z,25.4
2018-06-25T17:30:30.008Z,25.4
2018-06-25T17:31:19.812Z,25.4
2018-06-25T17:32:10.133Z,25.4
2018-06-25T17:33:00.204Z,25.4
2018-06-25T17:33:50.253Z,25.4
2018-06-25T17:34:40.324Z,25.4
2018-06-25T17:35:29.835Z,25.4
2018-06-25T17:36:19.599Z,25.4
2018-06-25T17:37:09.391Z,25.4
2018-06-25T17:38:00.625Z,25.4
2018-06-25T17:38:50.424Z,25.4
2018-06-25T17:39:40.736Z,25.4
2018-06-25T17:40:30.513Z,25.4
2018-06-25T17:41:20.841Z,25.4
2018-06-25T17:42:10.338Z,25.4
2018-06-25T17:42:59.910Z,25.4
2018-06-25T17:43:51.034Z,25.4
2018-06-25T17:44:40.812Z,25.4
2018-06-25T17:45:31.151Z,25.4
2018-06-25T17:46:20.638Z,25.4
2018-06-25T17:47:11.001Z,25.4
2018-06-25T17:48:01.359Z,25.4
2018-06-25T17:48:51.116Z,25.4
2018-06-25T17:49:41.452Z,25.4
2018-06-25T17:50:30.946Z,25.4
2018-06-25T17:51:21.358Z,25.4
2018-06-25T17:52:11.431Z,25.4
2018-06-25T17:53:01.439Z,25.4
2018-06-25T17:53:51.779Z,25.4
2018-06-25T17:54:41.777Z,25.4
2018-06-25T17:55:31.933Z,25.4
2018-06-25T17:56:21.994Z,25.4
2018-06-25T17:57:11.475Z,25.4
2018-06-25T17:58:01.828Z,25.4
2018-06-25T17:58:51.914Z,25.4
2018-06-25T17:59:41.949Z,25.4
2018-06-25T18:00:30.937Z,25.4
2018-06-25T18:01:21.894Z,25.4
2018-06-25T18:02:11.907Z,25.4
2018-06-25T18:03:02.198Z,25.4
2018-06-25T18:03:52.139Z,25.4
2018-06-25T18:04:41.760Z,25.4
2018-06-25T18:05:32.682Z,25.4
2018-06-25T18:06:22.744Z,25.4
2018-06-25T18:07:12.812Z,25.4
2018-06-25T18:08:02.303Z,25.4
2018-06-25T18:08:52.092Z,25.4
2018-06-25T18:09:42.974Z,25.4
2018-06-25T18:10:32.772Z,25.4
2018-06-25T18:11:23.133Z,25.4
2018-06-25T18:12:12.586Z,25.4
2018-06-25T18:13:02.954Z,25.4
2018-06-25T18:13:53.001Z,25.4
2018-06-25T18:14:41.740Z,25.4
2018-06-25T18:15:32.162Z,25.4
2018-06-25T18:16:22.588Z,25.4
2018-06-25T18:17:12.571Z,25.4
2018-06-25T18:18:02.301Z,25.4
2018-06-25T18:18:52.978Z,25.4
2018-06-25T18:19:43.002Z,25.4
2018-06-25T18:20:33.314Z,25.4
2018-06-25T18:21:23.089Z,25.4
2018-06-25T18:22:13.177Z,25.4
2018-06-25T18:23:02.956Z,25.4
2018-06-25T18:23:53.319Z,25.4
2018-06-25T18:24:43.348Z,25.4
2018-06-25T18:25:33.443Z,25.4
2018-06-25T18:26:23.488Z,25.4
2018-06-25T18:27:14.283Z,25.4
2018-06-25T18:28:03.554Z,25.4
2018-06-25T18:28:54.185Z,25.4
2018-06-25T18:29:44.481Z,25.4
2018-06-25T18:30:33.996Z,25.4
2018-06-25T18:31:24.184Z,25.4
2018-06-25T18:32:14.114Z,25.4
2018-06-25T18:33:04.803Z,25.4
2018-06-25T18:33:54.528Z,25.4
2018-06-25T18:34:44.887Z,25.4
2018-06-25T18:35:34.379Z,25.4
2018-06-25T18:36:24.984Z,25.4
2018-06-25T18:37:14.754Z,25.4
2018-06-25T18:38:04.589Z,25.4
2018-06-25T18:38:54.645Z,25.4
2018-06-25T18:39:44.795Z,25.4
2018-06-25T18:40:34.381Z,25.4
2018-06-25T18:41:25.120Z,25.4
2018-06-25T18:42:15.194Z,25.4
2018-06-25T18:43:05.595Z,25.4
2018-06-25T18:43:55.049Z,25.4
2018-06-25T18:44:45.682Z,25.4
2018-06-25T18:45:35.390Z,25.4
2018-06-25T18:46:25.500Z,25.4
2018-06-25T18:47:15.843Z,25.4
2018-06-25T18:48:05.898Z,25.4
2018-06-25T18:48:55.998Z,25.4
2018-06-25T18:49:45.771Z,25.4
2018-06-25T18:50:35.780Z,25.4
2018-06-25T18:51:26.190Z,25.4
2018-06-25T18:52:16.186Z,25.4
2018-06-25T18:53:06.258Z,25.4
2018-06-25T18:53:56.361Z,25.3
2018-06-25T18:54:46.416Z,25.4
2018-06-25T18:55:36.481Z,25.4
2018-06-25T18:56:26.533Z,25.4
2018-06-25T18:57:16.523Z,25.4
2018-06-25T18:58:06.068Z,25.4
2018-06-25T18:58:56.459Z,25.4
2018-06-25T18:59:46.818Z,25.4
2018-06-25T19:00:36.579Z,25.4
2018-06-25T19:01:45.855Z,25.4
2018-06-25T19:02:16.976Z,25.4
2018-06-25T19:03:06.776Z,25.4
2018-06-25T19:03:56.805Z,25.4
2018-06-25T19:04:46.585Z,25.4
2018-06-25T19:05:37.359Z,25.4
2018-06-25T19:06:27.325Z,25.4
2018-06-25T19:07:17.355Z,25.3
2018-06-25T19:08:07.172Z,25.4
2018-06-25T19:08:57.205Z,25.4
2018-06-25T19:09:46.972Z,25.4
2018-06-25T19:10:37.040Z,25.3
2018-06-25T19:11:26.813Z,25.3
2018-06-25T19:12:17.728Z,25.4
2018-06-25T19:13:07.326Z,25.3
2018-06-25T19:13:56.873Z,25.3
2018-06-25T19:14:47.383Z,25.3
2018-06-25T19:15:37.188Z,25.3
2018-06-25T19:16:27.223Z,25.4
2018-06-25T19:17:18.173Z,25.4
2018-06-25T19:18:07.442Z,25.3
2018-06-25T19:18:57.208Z,25.3
2018-06-25T19:19:48.318Z,25.3
2018-06-25T19:20:38.432Z,25.3
2018-06-25T19:21:27.576Z,25.4
2018-06-25T19:22:18.540Z,25.3
2018-06-25T19:23:08.003Z,25.3
2018-06-25T19:23:58.357Z,25.3
2018-06-25T19:24:47.419Z,25.4
2018-06-25T19:25:38.267Z,25.3
2018-06-25T19:26:28.856Z,25.3
2018-06-25T19:27:19.104Z,25.3
2018-06-25T19:28:08.689Z,25.3
2018-06-25T19:28:58.502Z,25.3
2018-06-25T19:29:49.192Z,25.3
2018-06-25T19:30:38.863Z,25.3
2018-06-25T19:31:28.937Z,25.3
2018-06-25T19:32:19.032Z,25.3
2018-06-25T19:33:09.066Z,25.3
2018-06-25T19:33:58.813Z,25.3
2018-06-25T19:34:49.141Z,25.3
2018-06-25T19:35:39.220Z,25.3
2018-06-25T19:36:29.595Z,25.3
2018-06-25T19:37:19.090Z,25.3
2018-06-25T19:38:09.687Z,25.3
2018-06-25T19:38:59.464Z,25.3
2018-06-25T19:39:49.843Z,25.3
2018-06-25T19:40:39.337Z,25.3
2018-06-25T19:41:29.128Z,25.3
2018-06-25T19:42:20.023Z,25.3
2018-06-25T19:43:09.813Z,25.3
2018-06-25T19:44:00.201Z,25.3
2018-06-25T19:44:49.929Z,25.3
2018-06-25T19:45:40.041Z,25.3
2018-06-25T19:46:30.421Z,25.3
2018-06-25T19:47:20.195Z,25.3
2018-06-25T19:48:09.918Z,25.3
2018-06-25T19:48:59.672Z,25.3
2018-06-25T19:49:50.347Z,25.3
2018-06-25T19:50:40.427Z,25.3
2018-06-25T19:51:30.438Z,25.3
2018-06-25T19:52:21.009Z,25.3
2018-06-25T19:53:10.575Z,25.3
2018-06-25T19:54:00.155Z,25.3
2018-06-25T19:54:50.520Z,25.3
2018-06-25T19:55:40.465Z,25.3
2018-06-25T19:56:30.527Z,25.3
2018-06-25T19:57:21.157Z,25.3
2018-06-25T19:58:10.430Z,25.3
2018-06-25T19:59:00.790Z,25.3
2018-06-25T19:59:51.235Z,25.3
2018-06-25T20:00:40.884Z,25.3
2018-06-25T20:01:31.251Z,25.3
2018-06-25T20:02:21.615Z,25.3
2018-06-25T20:03:11.642Z,25.3
2018-06-25T20:04:01.690Z,25.3
2018-06-25T20:04:51.824Z,25.3
2018-06-25T20:05:41.697Z,25.3
2018-06-25T20:06:31.932Z,25.3
2018-06-25T20:07:21.699Z,25.3
2018-06-25T20:08:11.825Z,25.3
2018-06-25T20:09:01.796Z,25.3
2018-06-25T20:09:51.345Z,25.3
2018-06-25T20:10:41.409Z,25.3
2018-06-25T20:11:31.726Z,25.3
2018-06-25T20:12:21.521Z,25.3
2018-06-25T20:13:11.623Z,25.3
2018-06-25T20:14:01.678Z,25.3
2018-06-25T20:14:51.747Z,25.3
2018-06-25T20:15:42.882Z,25.3
2018-06-25T20:16:32.526Z,25.3
2018-06-25T20:17:22.453Z,25.3
2018-06-25T20:18:12.231Z,25.3